Terminal Aerodrome Forecast
Issued by NWS

Home | Current Version | Previous Version | Text Only | Print | Product List | Glossary On
Versions: 1 2 3 4 5 6 7 8 9 10 11 12 13 14 15 16 17 18 19 20 21 22 23 24 25 26 27 28 29 30 31 32 33 34 35 36 37
000
FTUS45 KBOU 271311 AAA
TAFBJC
TAF AMD
KBJC 271311Z 2713/2812 VRB05KT P6SM SCT015 SCT090
     FM271500 03005KT P6SM SCT020 SCT080
     FM271900 01012G22KT P6SM VCSH SCT045 BKN100
     FM280100 03011KT P6SM SCT040 BKN090
     FM280700 08009KT P6SM SCT015 BKN030
     FM281100 07009KT P6SM VCSH BKN012 OVC020=

USA.gov is the U.S. government's official web portal to all federal, state and local government web resources and services.